Observation data for Tatum on 06/25/2019      Previous  Date  Next       Current Mesonet Observations  Soil Data  Daily Summary Page  Observations in Plain Language
KTAT 250500Z 12016KT 22/17 A3001 RMK A01 T02210166  RH  075%=      5-min Rain = 0
KTAT 250505Z 13017G22KT 22/17 A3001 RMK A01 T02200166  RH  075%=      5-min Rain = 0
KTAT 250510Z 13017G22KT 22/17 A3001 RMK A01 T02190167  RH  076%=      5-min Rain = 0
KTAT 250515Z 13017G22KT 22/17 A3001 RMK A01 T02190169  RH  077%=      5-min Rain = 0
KTAT 250520Z 13019KT 22/17 A3002 RMK A01 T02190170  RH  078%=      5-min Rain = 0
KTAT 250525Z 13018G25KT 22/17 A3002 RMK A01 T02190172  RH  078%=      5-min Rain = 0
KTAT 250530Z 13017G23KT 22/17 A3002 RMK A01 T02170172  RH  079%=      5-min Rain = 0
KTAT 250535Z 14015G20KT 22/17 A3002 RMK A01 T02150172  RH  080%=      5-min Rain = 0
KTAT 250540Z 14015G20KT 21/17 A3002 RMK A01 T02140172  RH  081%=      5-min Rain = 0
KTAT 250545Z 14016G21KT 21/17 A3002 RMK A01 T02130171  RH  081%=      5-min Rain = 0
KTAT 250550Z 14015G20KT 21/17 A3002 RMK A01 T02130170  RH  080%=      5-min Rain = 0
KTAT 250555Z 14015G20KT 21/17 A3002 RMK A01 T02120165  RH  079%=      5-min Rain = 0
KTAT 250600Z 14016G21KT 21/16 A3002 RMK A01 T02110159  RH  075%=      5-min Rain = 0
KTAT 250605Z 15015KT 21/15 A3002 RMK A01 T02100150  RH  072%=      5-min Rain = 0
KTAT 250610Z 15014KT 21/14 A3001 RMK A01 T02090141  RH  068%=      5-min Rain = 0
KTAT 250615Z 15014KT 21/14 A3001 RMK A01 T02080135  RH  066%=      5-min Rain = 0
KTAT 250620Z 15013KT 21/13 A3001 RMK A01 T02070132  RH  065%=      5-min Rain = 0
KTAT 250625Z 15012KT 20/13 A3001 RMK A01 T02040130  RH  065%=      5-min Rain = 0
KTAT 250630Z 15013KT 20/13 A3001 RMK A01 T02030126  RH  063%=      5-min Rain = 0
KTAT 250635Z 15013KT 20/12 A30 RMK A01 T02030120  RH  061%=      5-min Rain = 0
KTAT 250640Z 15012KT 20/12 A30 RMK A01 T02010117  RH  061%=      5-min Rain = 0
KTAT 250645Z 15010KT 20/12 A30 RMK A01 T01980116  RH  061%=      5-min Rain = 0
KTAT 250650Z 15010KT 20/12 A30 RMK A01 T01950116  RH  062%=      5-min Rain = 0
KTAT 250655Z 15009KT 19/12 A30 RMK A01 T01930116  RH  063%=      5-min Rain = 0
KTAT 250700Z 15010KT 19/12 A30 RMK A01 T01910115  RH  063%=      5-min Rain = 0
KTAT 250705Z 16012KT 19/11 A30 RMK A01 T01940109  RH  060%=      5-min Rain = 0
KTAT 250710Z 16011KT 20/11 A30 RMK A01 T01950105  RH  058%=      5-min Rain = 0
KTAT 250715Z 17010KT 19/10 A30 RMK A01 T01930102  RH  057%=      5-min Rain = 0
KTAT 250720Z 16009KT 19/10 A30 RMK A01 T01920101  RH  057%=      5-min Rain = 0
KTAT 250725Z 16010KT 19/10 A30 RMK A01 T01920102  RH  058%=      5-min Rain = 0
KTAT 250730Z 16009KT 19/10 A30 RMK A01 T01920102  RH  058%=      5-min Rain = 0
KTAT 250735Z 17009KT 19/10 A30 RMK A01 T01920102  RH  058%=      5-min Rain = 0
KTAT 250740Z 17009KT 19/10 A30 RMK A01 T01930103  RH  058%=      5-min Rain = 0
KTAT 250745Z 18009KT 19/11 A30 RMK A01 T01930105  RH  059%=      5-min Rain = 0
KTAT 250750Z 18009KT 19/11 A30 RMK A01 T01940109  RH  060%=      5-min Rain = 0
KTAT 250755Z 18009KT 19/11 A30 RMK A01 T01940113  RH  061%=      5-min Rain = 0
KTAT 250800Z 18009KT 19/12 A30 RMK A01 T01940115  RH  062%=      5-min Rain = 0
KTAT 250805Z 19009KT 19/12 A30 RMK A01 T01940118  RH  064%=      5-min Rain = 0
KTAT 250810Z 19010KT 20/12 A30 RMK A01 T01950123  RH  065%=      5-min Rain = 0
KTAT 250815Z 19012KT 20/13 A30 RMK A01 T01980128  RH  067%=      5-min Rain = 0
KTAT 250820Z 19012KT 20/13 A30 RMK A01 T02020133  RH  067%=      5-min Rain = 0
KTAT 250825Z 19013KT 20/13 A30 RMK A01 T02040134  RH  067%=      5-min Rain = 0
KTAT 250830Z 19012KT 21/14 A30 RMK A01 T02050135  RH  067%=      5-min Rain = 0
KTAT 250835Z 18012KT 21/13 A3001 RMK A01 T02050134  RH  067%=      5-min Rain = 0
KTAT 250840Z 18010KT 20/13 A3001 RMK A01 T02040134  RH  067%=      5-min Rain = 0
KTAT 250845Z 17010KT 20/13 A3001 RMK A01 T02030133  RH  067%=      5-min Rain = 0
KTAT 250850Z 17010KT 20/13 A3001 RMK A01 T02010132  RH  067%=      5-min Rain = 0
KTAT 250855Z 17011KT 20/13 A3001 RMK A01 T02010131  RH  067%=      5-min Rain = 0
KTAT 250900Z 16010KT 20/13 A3001 RMK A01 T01990130  RH  067%=      5-min Rain = 0
KTAT 250905Z 17012KT 20/13 A3001 RMK A01 T01980129  RH  067%=      5-min Rain = 0
KTAT 250910Z 18012KT 20/13 A3001 RMK A01 T02000127  RH  066%=      5-min Rain = 0
KTAT 250915Z 19011KT 20/13 A3001 RMK A01 T02010126  RH  064%=      5-min Rain = 0
KTAT 250920Z 18012KT 20/12 A3001 RMK A01 T02010124  RH  064%=      5-min Rain = 0
KTAT 250925Z 18013KT 20/12 A3001 RMK A01 T02010123  RH  063%=      5-min Rain = 0
KTAT 250930Z 18014KT 20/12 A3001 RMK A01 T02020122  RH  062%=      5-min Rain = 0
KTAT 250935Z 18014KT 20/12 A3001 RMK A01 T02020121  RH  062%=      5-min Rain = 0
KTAT 250940Z 18015KT 20/12 A3001 RMK A01 T02030120  RH  061%=      5-min Rain = 0
KTAT 250945Z 18016G21KT 20/12 A3001 RMK A01 T02030119  RH  061%=      5-min Rain = 0
KTAT 250950Z 18015KT 20/12 A3001 RMK A01 T02020119  RH  061%=      5-min Rain = 0
KTAT 250955Z 18014KT 20/12 A3001 RMK A01 T02000119  RH  062%=      5-min Rain = 0
KTAT 251000Z 18012KT 20/12 A3001 RMK A01 T01980119  RH  063%=      5-min Rain = 0
KTAT 251005Z 17010KT 19/12 A3002 RMK A01 T01940119  RH  064%=      5-min Rain = 0
KTAT 251010Z 17009KT 19/12 A3002 RMK A01 T01900119  RH  066%=      5-min Rain = 0
KTAT 251015Z 18009KT 19/12 A3002 RMK A01 T01860119  RH  067%=      5-min Rain = 0
KTAT 251020Z 18010KT 19/12 A3002 RMK A01 T01860119  RH  067%=      5-min Rain = 0
KTAT 251025Z 18010KT 19/12 A3002 RMK A01 T01870118  RH  067%=      5-min Rain = 0
KTAT 251030Z 18010KT 19/12 A3002 RMK A01 T01870117  RH  066%=      5-min Rain = 0
KTAT 251035Z 18010KT 19/12 A3002 RMK A01 T01870115  RH  065%=      5-min Rain = 0
KTAT 251040Z 18010KT 19/11 A3002 RMK A01 T01880113  RH  064%=      5-min Rain = 0
KTAT 251045Z 17011KT 19/11 A3002 RMK A01 T01870112  RH  064%=      5-min Rain = 0
KTAT 251050Z 18010KT 19/11 A3002 RMK A01 T01850111  RH  064%=      5-min Rain = 0
KTAT 251055Z 19010KT 18/11 A3002 RMK A01 T01840111  RH  065%=      5-min Rain = 0
KTAT 251100Z 19010KT 18/11 A3002 RMK A01 T01830112  RH  066%=      5-min Rain = 0
KTAT 251105Z 19009KT 18/11 A3002 RMK A01 T01820113  RH  067%=      5-min Rain = 0
KTAT 251110Z 18007KT 18/11 A3002 RMK A01 T01790114  RH  068%=      5-min Rain = 0
KTAT 251115Z 18006KT 18/11 A3003 RMK A01 T01760114  RH  069%=      5-min Rain = 0
KTAT 251120Z 19006KT 17/12 A3003 RMK A01 T01730115  RH  071%=      5-min Rain = 0
KTAT 251125Z 19008KT 17/12 A3003 RMK A01 T01720117  RH  072%=      5-min Rain = 0
KTAT 251130Z 19009KT 18/12 A3003 RMK A01 T01750118  RH  072%=      5-min Rain = 0
KTAT 251135Z 20010KT 18/12 A3002 RMK A01 T01770118  RH  071%=      5-min Rain = 0
KTAT 251140Z 19009KT 18/12 A3003 RMK A01 T01760117  RH  071%=      5-min Rain = 0
KTAT 251145Z 19008KT 17/12 A3003 RMK A01 T01740117  RH  072%=      5-min Rain = 0
KTAT 251150Z 19007KT 17/12 A3003 RMK A01 T01720116  RH  072%=      5-min Rain = 0
KTAT 251155Z 18007KT 17/12 A3003 RMK A01 T01700116  RH  073%=      5-min Rain = 0
KTAT 251200Z 19007KT 17/12 A3003 RMK A01 T01680116  RH  074%=      5-min Rain = 0
KTAT 251205Z 19007KT 17/12 A3003 RMK A01 T01680116  RH  074%=      5-min Rain = 0
KTAT 251210Z 18007KT 17/12 A3003 RMK A01 T01680116  RH  074%=      5-min Rain = 0
KTAT 251215Z 18007KT 17/12 A3003 RMK A01 T01700118  RH  074%=      5-min Rain = 0
KTAT 251220Z 19007KT 17/12 A3004 RMK A01 T01730119  RH  073%=      5-min Rain = 0
KTAT 251225Z 19008KT 18/12 A3004 RMK A01 T01760119  RH  072%=      5-min Rain = 0
KTAT 251230Z 19007KT 18/12 A3004 RMK A01 T01780120  RH  071%=      5-min Rain = 0
KTAT 251235Z 19008KT 18/12 A3004 RMK A01 T01810122  RH  071%=      5-min Rain = 0
KTAT 251240Z 19009KT 19/12 A3004 RMK A01 T01850123  RH  070%=      5-min Rain = 0
KTAT 251245Z 19009KT 19/13 A3004 RMK A01 T01880125  RH  069%=      5-min Rain = 0
KTAT 251250Z 19009KT 19/13 A3004 RMK A01 T01920127  RH  069%=      5-min Rain = 0
KTAT 251255Z 18010KT 20/13 A3004 RMK A01 T01950129  RH  068%=      5-min Rain = 0
KTAT 251300Z 18010G15KT 20/13 A3004 RMK A01 T01990130  RH  067%=      5-min Rain = 0
KTAT 251305Z 18011KT 20/13 A3004 RMK A01 T02030132  RH  067%=      5-min Rain = 0
KTAT 251310Z 18012KT 20/13 A3005 RMK A01 T02040133  RH  066%=      5-min Rain = 0
KTAT 251315Z 18013G18KT 21/13 A3005 RMK A01 T02070134  RH  066%=      5-min Rain = 0
KTAT 251320Z 18012G17KT 21/14 A3005 RMK A01 T02090135  RH  065%=      5-min Rain = 0
KTAT 251325Z 18012KT 21/14 A3005 RMK A01 T02130136  RH  064%=      5-min Rain = 0
KTAT 251330Z 18012KT 22/14 A3005 RMK A01 T02160138  RH  064%=      5-min Rain = 0
KTAT 251335Z 18015KT 22/14 A3005 RMK A01 T02180139  RH  063%=      5-min Rain = 0
KTAT 251340Z 18015KT 22/14 A3006 RMK A01 T02190139  RH  063%=      5-min Rain = 0
KTAT 251345Z 18016KT 22/14 A3005 RMK A01 T02200140  RH  063%=      5-min Rain = 0
KTAT 251350Z 18015KT 22/14 A3005 RMK A01 T02220141  RH  063%=      5-min Rain = 0
KTAT 251355Z 18015KT 23/14 A3005 RMK A01 T02250142  RH  062%=      5-min Rain = 0
KTAT 251400Z 19017G22KT 23/14 A3005 RMK A01 T02270141  RH  061%=      5-min Rain = 0
KTAT 251405Z 19017G22KT 23/14 A3006 RMK A01 T02270140  RH  060%=      5-min Rain = 0
KTAT 251410Z 19016KT 23/14 A3006 RMK A01 T02290140  RH  060%=      5-min Rain = 0
KTAT 251415Z 19016KT 23/14 A3006 RMK A01 T02330141  RH  059%=      5-min Rain = 0
KTAT 251420Z 18017KT 24/14 A3006 RMK A01 T02360141  RH  058%=      5-min Rain = 0
KTAT 251425Z 19016KT 24/14 A3006 RMK A01 T02370141  RH  057%=      5-min Rain = 0
KTAT 251430Z 19016KT 24/14 A3006 RMK A01 T02400141  RH  056%=      5-min Rain = 0
KTAT 251435Z 18015KT 25/14 A3006 RMK A01 T02450142  RH  055%=      5-min Rain = 0
KTAT 251440Z 18014KT 25/14 A3006 RMK A01 T02480142  RH  054%=      5-min Rain = 0
KTAT 251445Z 19014KT 25/14 A3006 RMK A01 T02510140  RH  052%=      5-min Rain = 0
KTAT 251450Z 18014KT 25/14 A3006 RMK A01 T02520140  RH  052%=      5-min Rain = 0
KTAT 251455Z 18012KT 26/14 A3006 RMK A01 T02580142  RH  051%=      5-min Rain = 0
KTAT 251500Z 18013KT 26/14 A3006 RMK A01 T02630140  RH  049%=      5-min Rain = 0
KTAT 251505Z 18013KT 26/14 A3006 RMK A01 T02630139  RH  049%=      5-min Rain = 0
KTAT 251510Z 19013KT 27/14 A3006 RMK A01 T02660138  RH  047%=      5-min Rain = 0
KTAT 251515Z 18014KT 27/14 A3005 RMK A01 T02680138  RH  047%=      5-min Rain = 0
KTAT 251520Z 19013KT 27/14 A3005 RMK A01 T02690138  RH  046%=      5-min Rain = 0
KTAT 251525Z 19011KT 27/14 A3005 RMK A01 T02700139  RH  046%=      5-min Rain = 0
KTAT 251530Z 18011KT 27/14 A3005 RMK A01 T02740137  RH  045%=      5-min Rain = 0
KTAT 251535Z 18011KT 28/14 A3005 RMK A01 T02780138  RH  044%=      5-min Rain = 0
KTAT 251540Z 18011KT 28/14 A3005 RMK A01 T02840137  RH  042%=      5-min Rain = 0
KTAT 251545Z 18011KT 29/13 A3005 RMK A01 T02860131  RH  040%=      5-min Rain = 0
KTAT 251550Z 18011KT 29/13 A3005 RMK A01 T02870133  RH  041%=      5-min Rain = 0
KTAT 251555Z 19012KT 29/13 A3005 RMK A01 T02880129  RH  039%=      5-min Rain = 0
KTAT 251600Z 18012KT 29/13 A3005 RMK A01 T02910129  RH  038%=      5-min Rain = 0
KTAT 251605Z 19012KT 30/13 A3005 RMK A01 T02960127  RH  037%=      5-min Rain = 0
KTAT 251610Z 19011G18KT 30/13 A3005 RMK A01 T02970125  RH  036%=      5-min Rain = 0
KTAT 251615Z 19012G18KT 30/12 A3005 RMK A01 T03030123  RH  034%=      5-min Rain = 0
KTAT 251620Z 19010G15KT 30/12 A3005 RMK A01 T03020122  RH  034%=      5-min Rain = 0
KTAT 251625Z 19011G16KT 30/12 A3005 RMK A01 T03030118  RH  033%=      5-min Rain = 0
KTAT 251630Z 18010KT 31/12 A3005 RMK A01 T03110120  RH  032%=      5-min Rain = 0
KTAT 251635Z 18011KT 32/11 A3005 RMK A01 T03180113  RH  029%=      5-min Rain = 0
KTAT 251640Z 19011G16KT 32/11 A3005 RMK A01 T03200112  RH  029%=      5-min Rain = 0
KTAT 251645Z 19011KT 32/11 A3005 RMK A01 T03210111  RH  029%=      5-min Rain = 0
KTAT 251650Z 20011KT 32/11 A3005 RMK A01 T03160110  RH  029%=      5-min Rain = 0
KTAT 251655Z 18011KT 32/11 A3005 RMK A01 T03240108  RH  028%=      5-min Rain = 0
KTAT 251700Z 18011KT 33/11 A3005 RMK A01 T03300109  RH  027%=      5-min Rain = 0
KTAT 251705Z 19011G19KT 33/10 A3005 RMK A01 T03300102  RH  026%=      5-min Rain = 0
KTAT 251710Z 19012G19KT 33/09 A3005 RMK A01 T03310094  RH  024%=      5-min Rain = 0
KTAT 251715Z 19010G20KT 33/10 A3005 RMK A01 T03340095  RH  024%=      5-min Rain = 0
KTAT 251720Z 19011KT 34/09 A3005 RMK A01 T03380089  RH  022%=      5-min Rain = 0
KTAT 251725Z 19012KT 34/09 A3004 RMK A01 T03410086  RH  022%=      5-min Rain = 0
KTAT 251730Z 19013G19KT 34/07 A3004 RMK A01 T03420072  RH  019%=      5-min Rain = 0
KTAT 251735Z 19011G16KT 34/07 A3004 RMK A01 T03420074  RH  020%=      5-min Rain = 0
KTAT 251740Z 19011G16KT 34/06 A3004 RMK A01 T03430062  RH  018%=      5-min Rain = 0
KTAT 251745Z 20011G16KT 35/05 A3004 RMK A01 T03450050  RH  016%=      5-min Rain = 0
KTAT 251750Z 18012G19KT 35/06 A3004 RMK A01 T03500060  RH  017%=      5-min Rain = 0
KTAT 251755Z 19013G18KT 35/04 A3004 RMK A01 T03450041  RH  015%=      5-min Rain = 0
KTAT 251800Z 19010KT 35/04 A3004 RMK A01 T03470038  RH  015%=      5-min Rain = 0
KTAT 251805Z 18012G17KT 35/04 A3004 RMK A01 T03520042  RH  015%=      5-min Rain = 0
KTAT 251810Z 17014KT 36/05 A3003 RMK A01 T03570051  RH  015%=      5-min Rain = 0
KTAT 251815Z 18010G16KT 35/04 A3003 RMK A01 T03530039  RH  014%=      5-min Rain = 0
KTAT 251820Z 17012G17KT 36/04 A3003 RMK A01 T03570035  RH  014%=      5-min Rain = 0
KTAT 251825Z 19009G16KT 36/02 A3003 RMK A01 T03550023  RH  013%=      5-min Rain = 0
KTAT 251830Z 20010G15KT 36/03 A3003 RMK A01 T03550026  RH  013%=      5-min Rain = 0
KTAT 251835Z 21012G19KT 35/02 A3003 RMK A01 T03540015  RH  012%=      5-min Rain = 0
KTAT 251840Z 19009G14KT 36/01 A3003 RMK A01 T03570012  RH  012%=      5-min Rain = 0
KTAT 251845Z 18008G14KT 36/01 A3003 RMK A01 T03550011  RH  012%=      5-min Rain = 0
KTAT 251850Z 20009G19KT 36/01 A3003 RMK A01 T03550007  RH  011%=      5-min Rain = 0
KTAT 251855Z 21011G18KT 35/01 A3003 RMK A01 T03530005  RH  011%=      5-min Rain = 0
KTAT 251900Z 15010G15KT 36/00 A3002 RMK A01 T03600001  RH  011%=      5-min Rain = 0
KTAT 251905Z 13009G17KT 35/00 A3002 RMK A01 T035400-0  RH  011%=      5-min Rain = 0
KTAT 251910Z 16013G20KT 36/01 A3002 RMK A01 T03610008  RH  011%=      5-min Rain = 0
KTAT 251915Z 17010G16KT 36/01 A3002 RMK A01 T03630006  RH  011%=      5-min Rain = 0
KTAT 251920Z 20006KT 36/01 A3002 RMK A01 T03600006  RH  011%=      5-min Rain = 0
KTAT 251925Z 20005G10KT 36/01 A3002 RMK A01 T03590007  RH  011%=      5-min Rain = 0
KTAT 251930Z 16011G16KT 36/02 A3002 RMK A01 T03640016  RH  011%=      5-min Rain = 0
KTAT 251935Z 17011G16KT 37/01 A3002 RMK A01 T03660010  RH  011%=      5-min Rain = 0
KTAT 251940Z 18008G13KT 37/02 A3001 RMK A01 T03680019  RH  011%=      5-min Rain = 0
KTAT 251945Z 14006G12KT 36/02 A3001 RMK A01 T03630015  RH  011%=      5-min Rain = 0
KTAT 251950Z 19012G19KT 37/02 A3001 RMK A01 T03660017  RH  011%=      5-min Rain = 0
KTAT 251955Z 21010G20KT 36/02 A3001 RMK A01 T03610015  RH  012%=      5-min Rain = 0
KTAT 252000Z 15012KT 37/02 A30 RMK A01 T03660019  RH  012%=      5-min Rain = 0
KTAT 252005Z 14013G21KT 36/01 A30 RMK A01 T03630014  RH  011%=      5-min Rain = 0
KTAT 252010Z 13008G14KT 36/02 A30 RMK A01 T03590015  RH  012%=      5-min Rain = 0
KTAT 252015Z 14012G19KT 36/02 A30 RMK A01 T03580016  RH  012%=      5-min Rain = 0
KTAT 252020Z 14013G18KT 35/01 A30 RMK A01 T03470011  RH  012%=      5-min Rain = 0
KTAT 252025Z 13011KT 34/01 A30 RMK A01 T03400014  RH  013%=      5-min Rain = 0
KTAT 252030Z 14009G16KT 36/02 A2999 RMK A01 T03600022  RH  012%=      5-min Rain = 0
KTAT 252035Z 18010G16KT 37/02 A2999 RMK A01 T03700021  RH  011%=      5-min Rain = 0
KTAT 252040Z 21010G16KT 37/02 A2999 RMK A01 T03650019  RH  012%=      5-min Rain = 0
KTAT 252045Z 20011KT 37/02 A2999 RMK A01 T03670017  RH  011%=      5-min Rain = 0
KTAT 252050Z 20012KT 36/02 A2999 RMK A01 T03600017  RH  012%=      5-min Rain = 0
KTAT 252055Z 18012G17KT 36/01 A2999 RMK A01 T03640013  RH  011%=      5-min Rain = 0
KTAT 252100Z 16012G19KT 36/01 A2999 RMK A01 T03550006  RH  011%=      5-min Rain = 0
KTAT 252105Z 15011G16KT 35/01 A2998 RMK A01 T03510005  RH  011%=      5-min Rain = 0
KTAT 252110Z 18014G20KT 35/01 A2998 RMK A01 T03510006  RH  011%=      5-min Rain = 0
KTAT 252115Z 16013G19KT 35/01 A2998 RMK A01 T03520009  RH  012%=      5-min Rain = 0
KTAT 252120Z 18011G16KT 37/01 A2998 RMK A01 T03670009  RH  011%=      5-min Rain = 0
KTAT 252125Z 17011KT 37/01 A2998 RMK A01 T03660007  RH  011%=      5-min Rain = 0
KTAT 252130Z 16011G19KT 37/01 A2998 RMK A01 T03660005  RH  010%=      5-min Rain = 0
KTAT 252135Z 16013KT 36/00 A2998 RMK A01 T03560004  RH  011%=      5-min Rain = 0
KTAT 252140Z 17011G16KT 35/00 A2998 RMK A01 T03480004  RH  011%=      5-min Rain = 0
KTAT 252145Z 17006KT 36/01 A2997 RMK A01 T03630012  RH  011%=      5-min Rain = 0
KTAT 252150Z 15011G17KT 36/00 A2997 RMK A01 T03590004  RH  011%=      5-min Rain = 0
KTAT 252155Z 15012G19KT 36/01 A2997 RMK A01 T03630005  RH  011%=      5-min Rain = 0
KTAT 252200Z 14010G16KT 37/01 A2997 RMK A01 T03650005  RH  011%=      5-min Rain = 0
KTAT 252205Z 14010G15KT 37/01 A2997 RMK A01 T03670005  RH  010%=      5-min Rain = 0
KTAT 252210Z 16010KT 36/00 A2997 RMK A01 T035800-0  RH  010%=      5-min Rain = 0
KTAT 252215Z 16006KT 36/00 A2996 RMK A01 T03560001  RH  011%=      5-min Rain = 0
KTAT 252220Z 14007G13KT 36/00 A2996 RMK A01 T03640003  RH  010%=      5-min Rain = 0
KTAT 252225Z 15010KT 36/M00 A2996 RMK A01 T03551001  RH  011%=      5-min Rain = 0
KTAT 252230Z 12011KT 36/00 A2996 RMK A01 T03590004  RH  011%=      5-min Rain = 0
KTAT 252235Z 14009G15KT 36/00 A2996 RMK A01 T03620001  RH  010%=      5-min Rain = 0
KTAT 252240Z 16012KT 36/00 A2996 RMK A01 T03620000  RH  010%=      5-min Rain = 0
KTAT 252245Z 15005KT 36/M01 A2996 RMK A01 T03581005  RH  010%=      5-min Rain = 0
KTAT 252250Z 12009G17KT 36/00 A2996 RMK A01 T03590001  RH  011%=      5-min Rain = 0
KTAT 252255Z 14010G15KT 36/00 A2996 RMK A01 T03630000  RH  010%=      5-min Rain = 0
KTAT 252300Z 15013G18KT 37/00 A2996 RMK A01 T03680001  RH  010%=      5-min Rain = 0
KTAT 252305Z 15015KT 37/00 A2996 RMK A01 T036600-0  RH  010%=      5-min Rain = 0
KTAT 252310Z 14015KT 36/M00 A2996 RMK A01 T03631001  RH  010%=      5-min Rain = 0
KTAT 252315Z 15015G22KT 36/00 A2996 RMK A01 T03600002  RH  011%=      5-min Rain = 0
KTAT 252320Z 19016G21KT 36/00 A2996 RMK A01 T03620001  RH  010%=      5-min Rain = 0
KTAT 252325Z 17011G18KT 36/00 A2996 RMK A01 T03590000  RH  010%=      5-min Rain = 0
KTAT 252330Z 13010G17KT 35/M01 A2996 RMK A01 T03501005  RH  011%=      5-min Rain = 0
KTAT 252335Z 12008G13KT 34/M00 A2996 RMK A01 T03421004  RH  011%=      5-min Rain = 0
KTAT 252340Z 11008KT 34/M01 A2995 RMK A01 T03361005  RH  011%=      5-min Rain = 0
KTAT 252345Z 14006KT 34/M01 A2995 RMK A01 T03351006  RH  011%=      5-min Rain = 0
KTAT 252350Z 14006KT 34/M00 A2996 RMK A01 T03351004  RH  012%=      5-min Rain = 0
KTAT 252355Z 12007KT 33/M00 A2995 RMK A01 T03331002  RH  012%=      5-min Rain = 0
KTAT 260000Z 12007KT 33/M00 A2995 RMK A01 T03331003  RH  012%=      5-min Rain = 0
KTAT 260005Z 13008KT 33/M01 A2995 RMK A01 T03321005  RH  012%=      5-min Rain = 0
KTAT 260010Z 13010KT 33/M01 A2995 RMK A01 T03321007  RH  012%=      5-min Rain = 0
KTAT 260015Z 13010KT 33/M01 A2995 RMK A01 T03331007  RH  011%=      5-min Rain = 0
KTAT 260020Z 13011KT 34/M01 A2995 RMK A01 T03411008  RH  011%=      5-min Rain = 0
KTAT 260025Z 13014G22KT 34/M00 A2995 RMK A01 T03431002  RH  011%=      5-min Rain = 0
KTAT 260030Z 12017G22KT 34/03 A2995 RMK A01 T03380032  RH  015%=      5-min Rain = 0
KTAT 260035Z 12016G22KT 33/04 A2995 RMK A01 T03330042  RH  016%=      5-min Rain = 0
KTAT 260040Z 12018G23KT 33/04 A2995 RMK A01 T03310040  RH  016%=      5-min Rain = 0
KTAT 260045Z 12015G22KT 33/04 A2995 RMK A01 T03260041  RH  017%=      5-min Rain = 0
KTAT 260050Z 11018G23KT 33/04 A2995 RMK A01 T03260042  RH  017%=      5-min Rain = 0
KTAT 260055Z 11016G22KT 33/04 A2995 RMK A01 T03260044  RH  017%=      5-min Rain = 0
KTAT 260100Z 11015G20KT 33/05 A2995 RMK A01 T03250047  RH  018%=      5-min Rain = 0
KTAT 260105Z 12017G22KT 32/04 A2995 RMK A01 T03230041  RH  017%=      5-min Rain = 0
KTAT 260110Z 13018G23KT 32/04 A2995 RMK A01 T03200036  RH  017%=      5-min Rain = 0
KTAT 260115Z 13016KT 32/03 A2995 RMK A01 T03170029  RH  016%=      5-min Rain = 0
KTAT 260120Z 13014KT 31/03 A2995 RMK A01 T03140028  RH  017%=      5-min Rain = 0
KTAT 260125Z 13008KT 31/03 A2995 RMK A01 T03090026  RH  017%=      5-min Rain = 0
KTAT 260130Z 13009KT 30/02 A2995 RMK A01 T03040022  RH  017%=      5-min Rain = 0
KTAT 260135Z 13008KT 30/02 A2995 RMK A01 T03020016  RH  016%=      5-min Rain = 0
KTAT 260140Z 15008KT 30/01 A2996 RMK A01 T02960013  RH  016%=      5-min Rain = 0
KTAT 260145Z 17012G17KT 29/01 A2996 RMK A01 T02940007  RH  016%=      5-min Rain = 0
KTAT 260150Z 16016G21KT 30/01 A2996 RMK A01 T03010008  RH  015%=      5-min Rain = 0
KTAT 260155Z 16013G18KT 30/01 A2997 RMK A01 T03020014  RH  016%=      5-min Rain = 0
KTAT 260200Z 16012KT 30/03 A2997 RMK A01 T02960029  RH  018%=      5-min Rain = 0
KTAT 260205Z 15013KT 30/04 A2997 RMK A01 T02950043  RH  021%=      5-min Rain = 0
KTAT 260210Z 15015G23KT 30/06 A2997 RMK A01 T02950060  RH  023%=      5-min Rain = 0
KTAT 260215Z 15016G21KT 30/07 A2998 RMK A01 T02950074  RH  026%=      5-min Rain = 0
KTAT 260220Z 15017KT 29/08 A2998 RMK A01 T02930080  RH  027%=      5-min Rain = 0
KTAT 260225Z 15016G21KT 29/08 A2999 RMK A01 T02920082  RH  028%=      5-min Rain = 0
KTAT 260230Z 16016KT 29/08 A2999 RMK A01 T02900081  RH  028%=      5-min Rain = 0
KTAT 260235Z 18015G20KT 29/06 A30 RMK A01 T02850055  RH  024%=      5-min Rain = 0
KTAT 260240Z 19016KT 28/05 A30 RMK A01 T02790054  RH  024%=      5-min Rain = 0
KTAT 260245Z 18018G26KT 28/07 A30 RMK A01 T02760067  RH  027%=      5-min Rain = 0
KTAT 260250Z 16020G26KT 28/09 A3001 RMK A01 T02760091  RH  032%=      5-min Rain = 0
KTAT 260255Z 16019G26KT 27/10 A3001 RMK A01 T02730096  RH  034%=      5-min Rain = 0
KTAT 260300Z 16019KT 27/10 A3001 RMK A01 T02680096  RH  035%=      5-min Rain = 0
KTAT 260305Z 15017KT 27/10 A3002 RMK A01 T02650096  RH  036%=      5-min Rain = 0
KTAT 260310Z 15017G23KT 26/10 A3002 RMK A01 T02640096  RH  036%=      5-min Rain = 0
KTAT 260315Z 14017KT 26/10 A3002 RMK A01 T02610095  RH  036%=      5-min Rain = 0
KTAT 260320Z 14017KT 26/10 A3003 RMK A01 T02570099  RH  038%=      5-min Rain = 0
KTAT 260325Z 14017KT 25/10 A3003 RMK A01 T02530104  RH  040%=      5-min Rain = 0
KTAT 260330Z 14016KT 25/11 A3004 RMK A01 T02510107  RH  042%=      5-min Rain = 0
KTAT 260335Z 14014KT 25/11 A3004 RMK A01 T02480110  RH  043%=      5-min Rain = 0
KTAT 260340Z 15014KT 25/11 A3004 RMK A01 T02470114  RH  045%=      5-min Rain = 0
KTAT 260345Z 15013KT 25/12 A3005 RMK A01 T02460116  RH  046%=      5-min Rain = 0
KTAT 260350Z 14012KT 25/12 A3005 RMK A01 T02450118  RH  047%=      5-min Rain = 0
KTAT 260355Z 14013KT 24/12 A3006 RMK A01 T02440119  RH  047%=      5-min Rain = 0
KTAT 260400Z 15014KT 24/12 A3006 RMK A01 T02440119  RH  047%=      5-min Rain = 0
KTAT 260405Z 15013KT 24/12 A3006 RMK A01 T02430119  RH  047%=      5-min Rain = 0
KTAT 260410Z 14012KT 24/12 A3006 RMK A01 T02410119  RH  048%=      5-min Rain = 0
KTAT 260415Z 14009KT 24/12 A3006 RMK A01 T02390120  RH  049%=      5-min Rain = 0
KTAT 260420Z 13008KT 23/12 A3006 RMK A01 T02340120  RH  051%=      5-min Rain = 0
KTAT 260425Z 14008KT 23/12 A3007 RMK A01 T02300121  RH  052%=      5-min Rain = 0
KTAT 260430Z 13008KT 23/12 A3007 RMK A01 T02280123  RH  053%=      5-min Rain = 0
KTAT 260435Z 14008KT 23/12 A3007 RMK A01 T02260123  RH  054%=      5-min Rain = 0
KTAT 260440Z 14007KT 22/12 A3007 RMK A01 T02230124  RH  055%=      5-min Rain = 0
KTAT 260445Z 14007KT 22/12 A3007 RMK A01 T02210124  RH  056%=      5-min Rain = 0
KTAT 260450Z 13007KT 22/12 A3007 RMK A01 T02180124  RH  057%=      5-min Rain = 0
KTAT 260455Z 13006KT 21/12 A3008 RMK A01 T02140123  RH  058%=      5-min Rain = 0

Page generated in 0.0093 seconds.